Latest Weather Observations for Combienbar

IDV60801

Issued at 11:02 am EDT Wednesday 16 January 2019 (issued every 10 minutes, with the page automatically refreshed every 10 minutes)

About weather observations | Map of weather stations | Latest weather observations for VIC | Other Formats
Station Details ID: 084143 Name: COMBIENBAR AWS Lat: -37.34 Lon: 149.02 Height: 640.0 m
Data from the previous 72 hours. | See also: Recent months at Combienbar
Date/Time
EDT
Temp
°C
App
Temp
°C
Dew
Point
°C
Rel
Hum
%
Delta-T
°C
Wind Press
QNH
hPa
Press
MSL
hPa
Rain since
9am
mm
Dir  Spd
km/h
Gust
km/h
Spd
kts
Gust
kts
16/11:00am 31.4 31.9 11.7 29 11.8 CALM 0 2 0 1 1013.9 1011.1 0.0
16/10:30am 32.1 32.9 13.8 33 11.4 SE 2 4 1 2 1013.8 1011.0 0.0
16/10:00am 34.1 35.0 15.1 32 12.1 NE 4 6 2 3 1013.7 1010.9 0.0
16/09:30am 33.1 33.2 11.6 27 13.0 ENE 2 6 1 3 1013.8 1011.0 0.0
16/09:00am 32.8 35.0 16.6 38 10.5 CALM 0 4 0 2 1014.0 1011.2 0.0
16/08:30am 32.4 33.8 14.5 33 11.2 CALM 0 0 0 0 1013.9 1011.1 0.0
16/08:00am 30.7 30.9 10.6 29 11.8 CALM 0 0 0 0 1013.8 1011.0 0.0
16/07:30am 30.0 29.3 8.4 26 12.2 NW 2 4 1 2 1013.7 1010.9 0.0
16/07:00am 28.9 28.1 6.3 24 12.3 CALM 0 2 0 1 1013.4 1010.6 0.0
16/06:30am 28.0 27.0 5.6 24 12.0 CALM 0 0 0 0 1013.3 1010.5 0.0
16/06:00am 27.5 26.4 5.1 24 11.9 CALM 0 0 0 0 1013.1 1010.3 0.0
16/05:30am 27.5 26.4 5.1 24 11.9 CALM 0 4 0 2 1012.9 1010.0 0.0
16/05:00am 27.2 26.1 4.9 24 11.7 CALM 0 2 0 1 1012.7 1009.9 0.0
16/04:30am 27.4 25.9 5.1 24 11.8 NNW 2 6 1 3 1012.6 1009.8 0.0
16/04:00am 28.5 26.9 4.7 22 12.6 NNW 2 9 1 5 1012.6 1009.8 0.0
16/03:30am 27.5 26.5 5.7 25 11.7 CALM 0 0 0 0 1012.7 1009.9 0.0
16/03:00am 27.4 26.5 6.2 26 11.4 CALM 0 0 0 0 1012.7 1009.9 0.0
16/02:30am 27.7 26.6 5.3 24 11.9 CALM 0 0 0 0 1013.1 1010.3 0.0
16/02:00am 27.6 26.4 4.6 23 12.1 CALM 0 2 0 1 1013.3 1010.5 0.0
16/01:30am 27.5 25.7 1.1 18 13.0 CALM 0 6 0 3 1013.8 1011.0 0.0
16/01:00am 26.7 24.7 -0.3 17 12.9 CALM 0 0 0 0 1014.2 1011.4 0.0
16/12:30am 27.1 25.2 0.8 18 12.9 CALM 0 2 0 1 1014.3 1011.5 0.0
16/12:00am 26.9 25.3 2.7 21 12.2 CALM 0 0 0 0 1014.3 1011.5 0.0
 
Date/Time
EDT
Temp
°C
App
Temp
°C
Dew
Point
°C
Rel
Hum
%
Delta-T
°C
Wind Press
QNH
hPa
Press
MSL
hPa
Rain since
9am
mm
Dir  Spd
km/h
Gust
km/h
Spd
kts
Gust
kts
15/11:30pm 27.3 25.9 3.7 22 12.2 CALM 0 0 0 0 1014.3 1011.5 0.0
15/11:00pm 27.3 26.1 4.4 23 12.0 CALM 0 6 0 3 1014.6 1011.8 0.0
15/10:30pm 26.8 25.8 5.7 26 11.2 CALM 0 2 0 1 1014.8 1012.0 0.0
15/10:00pm 27.1 26.3 6.5 27 11.1 CALM 0 4 0 2 1014.9 1012.1 0.0
15/09:30pm 27.4 26.8 7.3 28 11.0 CALM 0 4 0 2 1014.7 1011.9 0.0
15/09:00pm 26.9 26.2 8.4 31 10.3 SSW 2 4 1 2 1014.7 1011.9 0.0
15/08:30pm 27.5 27.2 10.2 34 10.0 SW 2 6 1 3 1014.6 1011.8 0.0
15/08:00pm 28.6 28.6 12.5 37 9.7 SW 4 6 2 3 1014.3 1011.5 0.0
15/07:30pm 30.4 30.2 10.4 29 11.7 SW 2 6 1 3 1013.8 1011.0 0.0
15/07:00pm 32.2 32.0 10.3 26 12.9 SW 2 6 1 3 1013.2 1010.4 0.0
15/06:30pm 32.9 32.4 10.9 26 13.1 SW 4 11 2 6 1012.7 1009.9 0.0
15/06:00pm 32.8 32.1 10.2 25 13.3 SSW 4 9 2 5 1012.3 1009.5 0.0
15/05:30pm 35.6 35.4 11.9 24 14.5 SW 4 9 2 5 1012.0 1009.2 0.0
15/05:00pm 36.1 35.9 11.7 23 14.9 SSW 4 7 2 4 1011.9 1009.1 0.0
15/04:30pm 36.6 36.3 12.8 24 14.8 SSW 6 9 3 5 1011.8 1009.0 0.0
15/04:00pm 37.5 38.0 14.1 24 14.9 SSW 4 9 2 5 1011.6 1008.7 0.0
15/03:30pm - - - - - S 2 6 1 3 1011.5 1008.6 0.0
15/03:00pm - - - - - WNW 6 11 3 6 1011.8 1009.0 0.0
15/02:30pm 36.9 36.9 13.6 24 14.7 NW 6 11 3 6 1011.9 1009.1 0.0
15/02:00pm 37.2 37.9 14.5 26 14.5 SW 4 7 2 4 1011.9 1009.1 0.0
15/01:30pm 36.7 37.2 12.8 24 14.9 SSW 2 9 1 5 1012.2 1009.4 0.0
15/01:00pm 37.0 38.1 15.5 28 13.9 SSW 4 13 2 7 1012.4 1009.6 0.0
15/12:30pm 35.9 36.8 15.1 29 13.3 SW 4 11 2 6 1012.7 1009.9 0.0
15/12:00pm 35.6 37.9 17.8 35 11.8 S 2 7 1 4 1013.0 1010.1 0.0
15/11:30am 34.3 36.5 16.6 34 11.5 CALM 0 7 0 4 1013.4 1010.6 0.0
15/11:00am 32.4 35.0 17.5 41 9.8 CALM 0 0 0 0 1013.6 1010.8 0.0
15/10:30am 31.1 33.2 16.3 41 9.5 CALM 0 0 0 0 1013.8 1011.0 0.0
15/10:00am 32.7 35.3 18.5 43 9.4 ENE 2 6 1 3 1013.8 1011.0 0.0
15/09:30am 31.8 34.8 18.4 45 8.9 CALM 0 4 0 2 1014.0 1011.2 0.0
15/09:00am 30.7 33.4 17.7 45 8.5 CALM 0 4 0 2 1014.0 1011.2 0.0
15/08:30am 29.1 31.1 16.0 45 8.3 CALM 0 0 0 0 1014.0 1011.2 0.0
15/08:00am 29.5 32.2 17.7 49 7.7 CALM 0 0 0 0 1014.0 1011.2 0.0
15/07:30am 27.9 30.0 16.2 49 7.4 CALM 0 0 0 0 1013.9 1011.1 0.0
15/07:00am 26.6 28.0 14.4 47 7.5 CALM 0 0 0 0 1013.8 1011.0 0.0
15/06:30am 25.8 27.2 14.3 49 7.0 CALM 0 0 0 0 1013.7 1010.9 0.0
15/06:00am 25.6 27.0 14.4 50 6.9 CALM 0 0 0 0 1013.6 1010.8 0.0
15/05:30am 25.4 26.8 14.5 51 6.7 CALM 0 0 0 0 1013.6 1010.8 0.0
15/05:00am 24.6 26.0 14.4 53 6.2 CALM 0 0 0 0 1013.5 1010.7 0.0
15/04:30am 24.4 26.1 15.3 57 5.6 CALM 0 0 0 0 1013.4 1010.6 0.0
15/04:00am 24.8 26.7 15.7 57 5.7 CALM 0 0 0 0 1013.5 1010.7 0.0
15/03:30am 24.5 26.3 15.4 57 5.6 CALM 0 0 0 0 1013.7 1010.9 0.0
15/03:00am 24.6 26.1 14.7 54 6.1 CALM 0 0 0 0 1014.0 1011.2 0.0
15/02:30am 24.7 26.3 14.8 54 6.1 CALM 0 0 0 0 1014.4 1011.7 0.0
15/02:00am 24.6 25.5 12.9 48 7.0 CALM 0 0 0 0 1015.0 1012.2 0.0
15/01:30am 24.5 25.6 13.4 50 6.7 CALM 0 0 0 0 1015.2 1012.4 0.0
15/01:00am 24.9 26.1 13.8 50 6.7 CALM 0 0 0 0 1015.3 1012.5 0.0
15/12:30am 25.6 26.9 14.1 49 7.0 CALM 0 0 0 0 1015.3 1012.5 0.0
15/12:00am 25.2 26.7 14.6 51 6.5 CALM 0 0 0 0 1015.4 1012.6 0.0
 
Date/Time
EDT
Temp
°C
App
Temp
°C
Dew
Point
°C
Rel
Hum
%
Delta-T
°C
Wind Press
QNH
hPa
Press
MSL
hPa
Rain since
9am
mm
Dir  Spd
km/h
Gust
km/h
Spd
kts
Gust
kts
14/11:30pm 25.4 26.8 14.5 51 6.7 CALM 0 0 0 0 1015.6 1012.8 0.0
14/11:00pm 25.7 27.0 14.2 49 7.0 CALM 0 0 0 0 1015.9 1013.2 0.0
14/10:30pm 25.9 27.3 14.4 49 7.0 CALM 0 0 0 0 1016.2 1013.4 0.0
14/10:00pm 26.0 27.7 15.1 51 6.7 CALM 0 0 0 0 1016.3 1013.5 0.0
14/09:30pm 25.8 27.7 15.8 54 6.3 CALM 0 0 0 0 1016.0 1013.3 0.0
14/09:00pm 26.0 28.6 17.6 60 5.4 CALM 0 0 0 0 1015.8 1013.1 0.0
14/08:30pm 26.3 28.8 18.2 61 5.3 NNE 2 4 1 2 1015.6 1012.8 0.0
14/08:00pm 27.1 29.6 18.1 58 5.9 NE 2 6 1 3 1015.5 1012.7 0.0
14/07:30pm 27.9 30.1 18.3 56 6.3 NNE 4 7 2 4 1015.1 1012.3 0.0
14/07:00pm 28.7 30.5 18.2 53 6.9 NE 6 13 3 7 1014.7 1011.9 0.0
14/06:30pm 30.1 33.1 19.2 52 7.3 NNE 2 7 1 4 1014.3 1011.5 0.0
14/06:00pm 31.6 35.0 20.2 50 7.7 NNE 2 6 1 3 1014.0 1011.2 0.0
14/05:30pm 32.1 35.6 20.4 50 8.0 NE 2 6 1 3 1013.8 1011.0 0.0
14/05:00pm 31.9 34.3 18.8 45 8.7 ESE 4 13 2 7 1013.7 1010.9 0.0
14/04:30pm 33.7 36.6 19.0 42 9.9 NE 2 9 1 5 1013.6 1010.8 0.0
14/04:00pm 34.8 37.2 18.8 39 10.7 NE 4 7 2 4 1013.5 1010.7 0.0
14/03:30pm 35.7 38.3 19.2 38 11.2 NNE 4 11 2 6 1013.6 1010.8 0.0
14/03:00pm 35.0 38.1 19.4 40 10.6 N 2 7 1 4 1014.0 1011.2 0.0
14/02:30pm 34.9 37.3 18.9 39 10.8 NNW 4 9 2 5 1014.3 1011.5 0.0
14/02:00pm 34.6 37.5 19.8 41 10.1 SE 4 9 2 5 1014.4 1011.7 0.0
14/01:30pm 34.0 36.4 18.9 41 10.1 S 4 9 2 5 1014.7 1011.9 0.0
14/01:00pm 33.1 35.7 18.5 42 9.7 SSE 2 9 1 5 1015.2 1012.4 0.0
14/12:30pm 32.8 36.5 20.0 47 8.7 CALM 0 2 0 1 1015.6 1012.8 0.0
14/12:00pm 30.8 33.8 18.5 47 8.1 CALM 0 2 0 1 1016.2 1013.4 0.0
14/11:30am 30.4 33.0 18.5 49 7.9 NW 2 9 1 5 1016.5 1013.7 0.0
14/11:00am 29.8 32.2 18.9 52 7.2 NNE 4 9 2 5 1016.8 1014.0 0.0
14/10:30am 28.8 31.1 18.6 54 6.7 NE 4 9 2 5 1017.0 1014.2 0.0
14/10:00am 27.5 29.5 18.8 59 5.7 NNE 6 11 3 6 1017.2 1014.5 0.0
14/09:30am 26.7 29.0 18.6 61 5.3 NE 4 9 2 5 1017.3 1014.6 0.0
14/09:00am 25.1 27.3 18.3 66 4.4 NNE 4 9 2 5 1017.2 1014.5 0.0
14/08:30am 22.2 24.4 16.5 70 3.6 CALM 0 2 0 1 1017.3 1014.6 0.0
14/08:00am 21.1 23.1 16.1 73 3.1 CALM 0 4 0 2 1017.3 1014.6 0.0
14/07:30am 20.3 22.0 16.1 77 2.6 NNE 2 6 1 3 1017.5 1014.8 0.0
14/07:00am 19.1 20.9 15.6 80 2.1 CALM 0 6 0 3 1017.5 1014.8 0.0
14/06:30am 18.0 19.2 14.9 82 1.9 NNW 2 6 1 3 1017.4 1014.7 0.0
14/06:00am 18.3 18.7 14.8 80 2.1 N 6 13 3 7 1017.2 1014.5 0.0
14/05:30am 18.3 18.7 14.8 80 2.1 NE 6 19 3 10 1017.1 1014.3 0.0
14/05:00am 17.8 17.8 14.3 80 2.1 NNE 7 15 4 8 1016.9 1014.1 0.0
14/04:30am 18.0 17.7 14.3 79 2.2 N 9 15 5 8 1016.9 1014.1 0.0
14/04:00am 17.8 17.0 14.1 79 2.2 N 11 35 6 19 1017.1 1014.3 0.0
14/03:30am 17.4 17.0 14.1 81 1.9 N 9 20 5 11 1017.4 1014.7 0.0
14/03:00am 17.1 17.0 14.0 82 1.8 N 7 17 4 9 1018.1 1015.3 0.0
14/02:30am 17.0 16.2 14.1 83 1.7 N 11 24 6 13 1018.6 1015.9 0.0
14/02:00am 16.7 16.8 14.0 84 1.6 NE 6 20 3 11 1019.2 1016.5 0.0
14/01:30am 16.7 16.6 14.0 84 1.6 N 7 26 4 14 1019.8 1017.0 0.0
14/01:00am 16.8 16.7 13.9 83 1.7 NNE 7 22 4 12 1020.5 1017.8 0.0
14/12:30am 16.7 16.8 13.8 83 1.7 NNE 6 13 3 7 1020.9 1018.2 0.0
14/12:00am 16.6 16.4 13.7 83 1.7 NNE 7 15 4 8 1021.3 1018.5 0.0
 
Date/Time
EDT
Temp
°C
App
Temp
°C
Dew
Point
°C
Rel
Hum
%
Delta-T
°C
Wind Press
QNH
hPa
Press
MSL
hPa
Rain since
9am
mm
Dir  Spd
km/h
Gust
km/h
Spd
kts
Gust
kts
13/11:30pm 16.6 16.6 13.7 83 1.7 NE 6 15 3 8 1021.8 1019.1 0.0
13/11:00pm 16.6 16.4 13.5 82 1.8 NE 7 20 4 11 1021.9 1019.2 0.0
13/10:30pm 16.7 16.1 13.4 81 1.9 NNE 9 24 5 13 1022.3 1019.6 0.0
13/10:00pm 16.8 16.1 13.3 80 2.0 NNE 9 24 5 13 1022.5 1019.8 0.0
13/09:30pm 16.9 16.2 13.2 79 2.1 NNE 9 19 5 10 1022.6 1019.9 0.0
13/09:00pm 17.2 16.5 13.3 78 2.3 NNE 9 20 5 11 1022.7 1020.1 0.0
13/08:30pm 17.4 16.7 13.3 77 2.4 NNE 9 17 5 9 1022.6 1019.9 0.0
13/08:00pm 17.7 17.4 13.4 76 2.5 NNE 7 22 4 12 1022.2 1019.5 0.0
13/07:30pm 18.4 18.2 13.5 73 2.9 NNE 7 13 4 7 1022.0 1019.3 0.0
13/07:00pm 19.2 19.3 13.8 71 3.2 NE 6 11 3 6 1022.0 1019.3 0.0
13/06:30pm 20.0 19.9 13.9 68 3.6 NNE 7 11 4 6 1022.0 1019.3 0.0
13/06:00pm 21.8 21.6 13.7 60 4.8 NNE 7 11 4 6 1021.9 1019.2 0.0
13/05:30pm 22.9 22.8 13.9 57 5.4 NNE 7 13 4 7 1021.8 1019.1 0.0
13/05:00pm 23.1 23.5 14.7 59 5.1 N 6 13 3 7 1022.0 1019.3 0.0
13/04:30pm 23.5 23.7 14.8 58 5.3 NNE 7 15 4 8 1022.1 1019.4 0.0
13/04:00pm 22.9 22.4 13.9 57 5.4 NNE 9 19 5 10 1022.2 1019.5 0.0
13/03:30pm 24.2 24.2 15.1 56 5.6 NNE 9 15 5 8 1022.3 1019.6 0.0
13/03:00pm 24.2 24.4 14.6 55 5.8 NE 7 15 4 8 1022.4 1019.7 0.0
13/02:30pm 24.3 24.6 14.4 54 6.0 NNE 6 13 3 7 1022.7 1020.1 0.0
13/02:00pm 24.5 24.2 13.4 50 6.6 NNE 7 15 4 8 1022.9 1020.2 0.0
13/01:30pm 25.4 25.5 14.5 51 6.7 NNE 7 13 4 7 1023.1 1020.4 0.0
13/01:00pm 25.0 25.0 14.2 51 6.6 NE 7 17 4 9 1023.2 1020.5 0.0
13/12:30pm 24.6 24.6 13.5 50 6.7 NE 6 11 3 6 1023.3 1020.6 0.0
13/12:00pm 23.8 24.0 14.2 55 5.8 NE 6 11 3 6 1023.5 1020.8 0.0
13/11:30am 22.5 22.2 13.3 56 5.5 NNE 7 9 4 5 1023.7 1021.0 0.0

Other Formats:

Comma delimited format used in spreadsheet applications
http://www.bom.gov.au/fwo/IDV60801/IDV60801.94914.axf

JavaScript Object Notation format (JSON) in row-major order
http://www.bom.gov.au/fwo/IDV60801/IDV60801.94914.json